Private Wetterstation Sandau
Wetterdaten: Freitag, 02.11.2012
Datum Zeit Temp. A. Feuchte A. Luftdruck Regen Wind Richtung Richtung Taupunkt Windchill
02.11.2012 00:01 6,9 C 89 % 990,8 hPa 0,0 l/m 10,8 km/h (2 Bft) S-SW 202 5,2 C 4,8 C
02.11.2012 00:06 6,9 C 89 % 990,7 hPa 0,0 l/m 13,7 km/h (3 Bft) S-SW 202 5,2 C 4,3 C
02.11.2012 00:11 7,1 C 89 % 990,7 hPa 0,0 l/m 26,6 km/h (4 Bft) W-SW 247 5,4 C 3,1 C
02.11.2012 00:16 7,2 C 88 % 990,8 hPa 0,0 l/m 6,5 km/h (2 Bft) S-SO 157 5,3 C 6,1 C
02.11.2012 00:21 7,2 C 88 % 990,9 hPa 0,0 l/m 9,7 km/h (2 Bft) SW 225 5,3 C 5,3 C
02.11.2012 00:26 7,2 C 88 % 990,8 hPa 0,0 l/m 9,4 km/h (2 Bft) SW 225 5,3 C 5,4 C
02.11.2012 00:31 7,2 C 88 % 990,8 hPa 0,0 l/m 7,9 km/h (2 Bft) SW 225 5,3 C 5,7 C
02.11.2012 00:36 7,2 C 88 % 991,0 hPa 0,0 l/m 15,8 km/h (3 Bft) S-SW 202 5,3 C 4,4 C
02.11.2012 00:41 7,1 C 88 % 991,1 hPa 0,0 l/m 5,8 km/h (2 Bft) S 180 5,2 C 6,2 C
02.11.2012 00:46 7,1 C 88 % 990,8 hPa 0,0 l/m 15,5 km/h (3 Bft) SW 225 5,2 C 4,3 C
02.11.2012 00:51 7,0 C 88 % 991,0 hPa 0,0 l/m 16,2 km/h (3 Bft) W-SW 247 5,2 C 4,1 C
02.11.2012 00:56 7,0 C 88 % 991,2 hPa 0,0 l/m 6,8 km/h (2 Bft) S-SW 202 5,2 C 5,8 C
02.11.2012 01:01 6,9 C 87 % 991,2 hPa 0,0 l/m 7,6 km/h (2 Bft) S 180 4,9 C 5,5 C
02.11.2012 01:06 6,9 C 87 % 991,3 hPa 0,0 l/m 12,6 km/h (3 Bft) SW 225 4,9 C 4,5 C
02.11.2012 01:11 6,9 C 87 % 991,4 hPa 0,0 l/m 7,2 km/h (2 Bft) SW 225 4,9 C 5,6 C
02.11.2012 01:16 6,8 C 87 % 991,4 hPa 0,0 l/m 6,1 km/h (2 Bft) W-SW 247 4,8 C 5,8 C
02.11.2012 01:21 6,7 C 87 % 991,5 hPa 0,0 l/m 6,8 km/h (2 Bft) W-SW 247 4,7 C 5,4 C
02.11.2012 01:26 6,6 C 87 % 991,5 hPa 0,0 l/m 6,8 km/h (2 Bft) S-SW 202 4,6 C 5,3 C
02.11.2012 01:31 6,5 C 87 % 991,3 hPa 0,0 l/m 6,1 km/h (2 Bft) S-SW 202 4,5 C 5,4 C
02.11.2012 01:36 6,4 C 87 % 991,4 hPa 0,0 l/m 2,9 km/h (1 Bft) S 180 4,4 C 6,4 C
02.11.2012 01:41 6,3 C 87 % 991,7 hPa 0,0 l/m 7,2 km/h (2 Bft) S-SW 202 4,3 C 4,9 C
02.11.2012 01:46 6,2 C 87 % 991,7 hPa 0,0 l/m 3,6 km/h (1 Bft) S 180 4,2 C 6,2 C
02.11.2012 01:51 6,1 C 87 % 991,9 hPa 0,0 l/m 0,0 km/h (0 Bft) S-SW 202 4,1 C 6,1 C
02.11.2012 01:56 5,9 C 87 % 991,9 hPa 0,0 l/m 6,1 km/h (2 Bft) S-SW 202 3,9 C 4,7 C
02.11.2012 02:01 5,9 C 88 % 991,8 hPa 0,0 l/m 6,1 km/h (2 Bft) S-SW 202 4,1 C 4,7 C
02.11.2012 02:06 5,9 C 88 % 992,1 hPa 0,0 l/m 6,1 km/h (2 Bft) S-SW 202 4,1 C 4,7 C
02.11.2012 02:11 5,8 C 88 % 992,2 hPa 0,0 l/m 9,4 km/h (2 Bft) SW 225 4,0 C 3,7 C
02.11.2012 02:16 5,8 C 88 % 992,1 hPa 0,0 l/m 3,6 km/h (1 Bft) S-SW 202 4,0 C 5,8 C
02.11.2012 02:21 5,9 C 88 % 992,2 hPa 0,0 l/m 7,9 km/h (2 Bft) SW 225 4,1 C 4,2 C
02.11.2012 02:26 6,0 C 87 % 992,3 hPa 0,0 l/m 19,1 km/h (3 Bft) W 270 4,0 C 2,4 C
02.11.2012 02:31 6,2 C 87 % 992,1 hPa 0,0 l/m 14,8 km/h (3 Bft) SW 225 4,2 C 3,3 C
02.11.2012 02:36 6,4 C 87 % 992,0 hPa 0,0 l/m 4,7 km/h (1 Bft) S-SW 202 4,4 C 5,8 C
02.11.2012 02:41 6,4 C 86 % 992,2 hPa 0,0 l/m 6,8 km/h (2 Bft) SW 225 4,2 C 5,1 C
02.11.2012 02:46 6,5 C 86 % 992,3 hPa 0,0 l/m 14,8 km/h (3 Bft) SW 225 4,3 C 3,6 C
02.11.2012 02:51 6,6 C 86 % 992,3 hPa 0,0 l/m 16,2 km/h (3 Bft) W-SW 247 4,4 C 3,6 C
02.11.2012 02:56 6,7 C 85 % 992,5 hPa 0,0 l/m 11,9 km/h (2 Bft) W-SW 247 4,4 C 4,3 C
02.11.2012 03:01 6,8 C 85 % 992,5 hPa 0,0 l/m 10,1 km/h (2 Bft) S 180 4,5 C 4,8 C
02.11.2012 03:06 6,9 C 85 % 992,7 hPa 0,0 l/m 21,6 km/h (4 Bft) W-SW 247 4,6 C 3,3 C
02.11.2012 03:11 7,1 C 84 % 992,8 hPa 0,0 l/m 9,4 km/h (2 Bft) W-SW 247 4,6 C 5,3 C
02.11.2012 03:16 7,2 C 83 % 992,8 hPa 0,0 l/m 15,8 km/h (3 Bft) S-SW 202 4,5 C 4,4 C
02.11.2012 03:21 7,3 C 82 % 992,9 hPa 0,0 l/m 11,5 km/h (2 Bft) S-SW 202 4,4 C 5,1 C
02.11.2012 03:26 7,4 C 82 % 992,9 hPa 0,0 l/m 9,7 km/h (2 Bft) S 180 4,5 C 5,6 C
02.11.2012 03:31 7,4 C 82 % 993,2 hPa 0,0 l/m 11,2 km/h (2 Bft) W 270 4,5 C 5,3 C
02.11.2012 03:36 7,4 C 82 % 993,3 hPa 0,0 l/m 14,8 km/h (3 Bft) W-SW 247 4,5 C 4,7 C
02.11.2012 03:41 7,4 C 81 % 993,3 hPa 0,0 l/m 12,6 km/h (3 Bft) SW 225 4,4 C 5,1 C
02.11.2012 03:46 7,3 C 82 % 993,1 hPa 0,0 l/m 12,6 km/h (3 Bft) SW 225 4,4 C 4,9 C
02.11.2012 03:51 7,2 C 82 % 993,2 hPa 0,0 l/m 5,4 km/h (1 Bft) S-SW 202 4,3 C 6,4 C
02.11.2012 03:56 7,1 C 82 % 993,3 hPa 0,0 l/m 16,6 km/h (3 Bft) SW 225 4,2 C 4,1 C
02.11.2012 04:01 6,9 C 82 % 993,5 hPa 0,0 l/m 10,1 km/h (2 Bft) W-SW 247 4,0 C 4,9 C
02.11.2012 04:06 6,9 C 82 % 993,6 hPa 0,0 l/m 15,5 km/h (3 Bft) SW 225 4,0 C 4,0 C
02.11.2012 04:11 6,8 C 82 % 993,7 hPa 0,0 l/m 14,8 km/h (3 Bft) W-SW 247 3,9 C 4,0 C
02.11.2012 04:16 6,8 C 83 % 993,9 hPa 0,0 l/m 9,0 km/h (2 Bft) SW 225 4,1 C 5,0 C
02.11.2012 04:21 6,7 C 83 % 993,8 hPa 0,0 l/m 9,4 km/h (2 Bft) SW 225 4,0 C 4,8 C
02.11.2012 04:26 6,7 C 83 % 993,9 hPa 0,0 l/m 14,4 km/h (3 Bft) SW 225 4,0 C 3,9 C
02.11.2012 04:31 6,6 C 83 % 993,9 hPa 0,0 l/m 6,5 km/h (2 Bft) S-SW 202 3,9 C 5,4 C
02.11.2012 04:36 6,6 C 83 % 994,0 hPa 0,0 l/m 6,5 km/h (2 Bft) S-SO 157 3,9 C 5,4 C
02.11.2012 04:41 6,5 C 83 % 994,1 hPa 0,0 l/m 6,5 km/h (2 Bft) S 180 3,8 C 5,3 C
02.11.2012 04:46 6,5 C 83 % 994,2 hPa 0,0 l/m 8,3 km/h (2 Bft) S-SW 202 3,8 C 4,8 C
02.11.2012 04:51 6,5 C 83 % 994,3 hPa 0,0 l/m 11,2 km/h (2 Bft) W-SW 247 3,8 C 4,2 C
02.11.2012 04:56 6,5 C 83 % 994,2 hPa 0,0 l/m 9,4 km/h (2 Bft) W-SW 247 3,8 C 4,6 C
02.11.2012 05:01 6,5 C 83 % 994,5 hPa 0,0 l/m 13,3 km/h (3 Bft) W-SW 247 3,8 C 3,9 C
02.11.2012 05:06 6,5 C 83 % 994,4 hPa 0,0 l/m 7,6 km/h (2 Bft) S-SW 202 3,8 C 5,0 C
02.11.2012 05:11 6,6 C 83 % 994,6 hPa 0,0 l/m 6,1 km/h (2 Bft) S 180 3,9 C 5,5 C
02.11.2012 05:16 6,5 C 83 % 994,6 hPa 0,0 l/m 5,0 km/h (1 Bft) N-NW 337 3,8 C 5,8 C
02.11.2012 05:21 6,5 C 83 % 994,6 hPa 0,0 l/m 10,4 km/h (2 Bft) W-SW 247 3,8 C 4,4 C
02.11.2012 05:26 6,6 C 83 % 994,6 hPa 0,0 l/m 19,4 km/h (3 Bft) SW 225 3,9 C 3,2 C
02.11.2012 05:31 6,6 C 83 % 994,6 hPa 0,0 l/m 5,8 km/h (2 Bft) S-SW 202 3,9 C 5,6 C
02.11.2012 05:36 6,6 C 83 % 994,6 hPa 0,0 l/m 8,3 km/h (2 Bft) S 180 3,9 C 4,9 C
02.11.2012 05:41 6,6 C 84 % 994,6 hPa 0,0 l/m 12,2 km/h (2 Bft) W-SW 247 4,1 C 4,2 C
02.11.2012 05:46 6,6 C 84 % 994,7 hPa 0,0 l/m 7,2 km/h (2 Bft) W-SW 247 4,1 C 5,2 C
02.11.2012 05:51 6,7 C 84 % 994,8 hPa 0,0 l/m 8,6 km/h (2 Bft) W 270 4,2 C 5,0 C
02.11.2012 05:56 6,7 C 84 % 994,7 hPa 0,0 l/m 18,7 km/h (3 Bft) W-SW 247 4,2 C 3,4 C
02.11.2012 06:01 6,7 C 84 % 994,9 hPa 0,0 l/m 8,3 km/h (2 Bft) W 270 4,2 C 5,1 C
02.11.2012 06:06 6,6 C 84 % 994,8 hPa 0,0 l/m 11,9 km/h (2 Bft) SW 225 4,1 C 4,2 C
02.11.2012 06:11 6,6 C 84 % 995,0 hPa 0,0 l/m 6,8 km/h (2 Bft) SW 225 4,1 C 5,3 C
02.11.2012 06:16 6,6 C 84 % 995,2 hPa 0,0 l/m 5,8 km/h (2 Bft) SW 225 4,1 C 5,6 C
02.11.2012 06:21 6,5 C 84 % 995,2 hPa 0,0 l/m 5,8 km/h (2 Bft) S-SW 202 4,0 C 5,5 C
02.11.2012 06:26 6,5 C 84 % 995,2 hPa 0,0 l/m 0,0 km/h (0 Bft) S 180 4,0 C 6,5 C
02.11.2012 06:31 6,5 C 84 % 995,4 hPa 0,0 l/m 6,5 km/h (2 Bft) S 180 4,0 C 5,3 C
02.11.2012 06:36 6,4 C 84 % 995,5 hPa 0,0 l/m 4,3 km/h (1 Bft) S 180 3,9 C 6,4 C
02.11.2012 06:41 6,4 C 84 % 995,5 hPa 0,0 l/m 8,6 km/h (2 Bft) S-SW 202 3,9 C 4,6 C
02.11.2012 06:46 6,3 C 84 % 995,7 hPa 0,0 l/m 8,6 km/h (2 Bft) S 180 3,8 C 4,5 C
02.11.2012 06:51 6,3 C 84 % 995,5 hPa 0,0 l/m 7,6 km/h (2 Bft) S-SW 202 3,8 C 4,8 C
02.11.2012 06:56 6,2 C 84 % 995,6 hPa 0,0 l/m 1,8 km/h (1 Bft) S-SW 202 3,7 C 6,2 C
02.11.2012 07:01 6,1 C 84 % 995,8 hPa 0,0 l/m 5,8 km/h (2 Bft) S-SW 202 3,6 C 5,1 C
02.11.2012 07:06 6,1 C 84 % 995,9 hPa 0,0 l/m 10,1 km/h (2 Bft) SW 225 3,6 C 4,0 C
02.11.2012 07:11 6,1 C 84 % 996,0 hPa 0,0 l/m 20,2 km/h (4 Bft) W-SW 247 3,6 C 2,4 C
02.11.2012 07:16 6,1 C 84 % 996,2 hPa 0,0 l/m 23,8 km/h (4 Bft) S-SW 202 3,6 C 2,0 C
02.11.2012 07:21 6,2 C 84 % 996,0 hPa 0,0 l/m 11,9 km/h (2 Bft) SW 225 3,7 C 3,7 C
02.11.2012 07:26 6,3 C 84 % 996,4 hPa 0,0 l/m 16,2 km/h (3 Bft) W-SW 247 3,8 C 3,2 C
02.11.2012 07:31 6,4 C 83 % 996,5 hPa 0,0 l/m 18,7 km/h (3 Bft) SW 225 3,7 C 3,0 C
02.11.2012 07:36 6,4 C 83 % 996,5 hPa 0,0 l/m 6,1 km/h (2 Bft) S-SW 202 3,7 C 5,3 C
02.11.2012 07:41 6,5 C 83 % 996,7 hPa 0,0 l/m 5,0 km/h (1 Bft) W-SW 247 3,8 C 5,8 C
02.11.2012 07:46 6,6 C 83 % 996,5 hPa 0,0 l/m 7,9 km/h (2 Bft) S-SW 202 3,9 C 5,0 C
02.11.2012 07:51 6,6 C 83 % 996,7 hPa 0,0 l/m 14,8 km/h (3 Bft) W-SW 247 3,9 C 3,8 C
02.11.2012 07:56 6,6 C 83 % 996,9 hPa 0,0 l/m 13,0 km/h (3 Bft) S-SW 202 3,9 C 4,0 C
02.11.2012 08:01 6,7 C 83 % 996,9 hPa 0,0 l/m 19,1 km/h (3 Bft) S-SO 157 4,0 C 3,3 C
02.11.2012 08:06 6,6 C 83 % 997,0 hPa 0,0 l/m 18,7 km/h (3 Bft) W 270 3,9 C 3,2 C
02.11.2012 08:11 6,7 C 83 % 997,0 hPa 0,0 l/m 12,2 km/h (2 Bft) SW 225 4,0 C 4,3 C
02.11.2012 08:16 6,8 C 83 % 996,9 hPa 0,0 l/m 6,1 km/h (2 Bft) S-SO 157 4,1 C 5,8 C
02.11.2012 08:21 6,9 C 83 % 997,2 hPa 0,0 l/m 7,6 km/h (2 Bft) W-SW 247 4,2 C 5,5 C
02.11.2012 08:26 6,9 C 82 % 997,3 hPa 0,0 l/m 6,1 km/h (2 Bft) S-SW 202 4,0 C 5,9 C
02.11.2012 08:31 6,9 C 82 % 997,2 hPa 0,0 l/m 8,3 km/h (2 Bft) W-SW 247 4,0 C 5,3 C
02.11.2012 08:36 6,9 C 82 % 997,4 hPa 0,0 l/m 8,3 km/h (2 Bft) S 180 4,0 C 5,3 C
02.11.2012 08:41 6,9 C 82 % 997,6 hPa 0,0 l/m 8,6 km/h (2 Bft) S 180 4,0 C 5,2 C
02.11.2012 08:46 6,9 C 82 % 997,7 hPa 0,0 l/m 10,1 km/h (2 Bft) W-SW 247 4,0 C 4,9 C
02.11.2012 08:51 6,9 C 82 % 997,6 hPa 0,0 l/m 10,4 km/h (2 Bft) S-SO 157 4,0 C 4,8 C
02.11.2012 08:56 6,9 C 82 % 997,7 hPa 0,0 l/m 6,5 km/h (2 Bft) SW 225 4,0 C 5,8 C
02.11.2012 09:01 6,9 C 82 % 997,9 hPa 0,0 l/m 9,7 km/h (2 Bft) W-SW 247 4,0 C 5,0 C
02.11.2012 09:06 6,9 C 82 % 997,9 hPa 0,0 l/m 7,2 km/h (2 Bft) W-SW 247 4,0 C 5,6 C
02.11.2012 09:11 7,0 C 82 % 997,9 hPa 0,0 l/m 6,1 km/h (2 Bft) SW 225 4,1 C 6,0 C
02.11.2012 09:16 7,3 C 82 % 998,1 hPa 0,0 l/m 10,1 km/h (2 Bft) S-SW 202 4,4 C 5,4 C
02.11.2012 09:21 7,4 C 82 % 998,1 hPa 0,0 l/m 5,4 km/h (1 Bft) W-SW 247 4,5 C 6,7 C
02.11.2012 09:26 7,6 C 81 % 998,2 hPa 0,0 l/m 10,1 km/h (2 Bft) S 180 4,6 C 5,7 C
02.11.2012 09:31 7,6 C 81 % 998,1 hPa 0,0 l/m 17,6 km/h (3 Bft) W-SW 247 4,6 C 4,6 C
02.11.2012 09:36 7,8 C 81 % 998,2 hPa 0,0 l/m 4,7 km/h (1 Bft) W-SW 247 4,7 C 7,4 C
02.11.2012 09:41 7,9 C 80 % 998,2 hPa 0,0 l/m 8,3 km/h (2 Bft) S-SW 202 4,7 C 6,5 C
02.11.2012 09:46 7,8 C 79 % 998,4 hPa 0,0 l/m 17,3 km/h (3 Bft) W 270 4,4 C 4,9 C
02.11.2012 09:51 7,8 C 79 % 998,4 hPa 0,0 l/m 10,8 km/h (2 Bft) SW 225 4,4 C 5,9 C
02.11.2012 09:56 7,9 C 78 % 998,5 hPa 0,0 l/m 10,4 km/h (2 Bft) W 270 4,3 C 6,0 C
02.11.2012 10:01 7,9 C 78 % 998,5 hPa 0,0 l/m 19,4 km/h (3 Bft) W 270 4,3 C 4,8 C
02.11.2012 10:06 7,9 C 78 % 998,6 hPa 0,0 l/m 9,4 km/h (2 Bft) S-SW 202 4,3 C 6,2 C
02.11.2012 10:11 8,1 C 78 % 998,7 hPa 0,0 l/m 17,3 km/h (3 Bft) S 180 4,5 C 5,3 C
02.11.2012 10:16 8,2 C 77 % 998,6 hPa 0,0 l/m 6,8 km/h (2 Bft) W-SW 247 4,4 C 7,2 C
02.11.2012 10:21 8,3 C 76 % 998,6 hPa 0,0 l/m 17,3 km/h (3 Bft) S-SW 202 4,3 C 5,5 C
02.11.2012 10:26 8,3 C 76 % 998,6 hPa 0,0 l/m 7,2 km/h (2 Bft) SW 225 4,3 C 7,2 C
02.11.2012 10:31 8,4 C 76 % 998,7 hPa 0,0 l/m 15,1 km/h (3 Bft) S-SW 202 4,4 C 5,9 C
02.11.2012 10:36 8,7 C 77 % 998,9 hPa 0,0 l/m 8,3 km/h (2 Bft) S 180 4,9 C 7,4 C
02.11.2012 10:41 8,9 C 75 % 998,9 hPa 0,0 l/m 24,1 km/h (4 Bft) W-SW 247 4,7 C 5,6 C
02.11.2012 10:46 8,8 C 74 % 998,9 hPa 0,0 l/m 13,7 km/h (3 Bft) SW 225 4,4 C 6,6 C
02.11.2012 10:51 8,8 C 73 % 998,8 hPa 0,0 l/m 10,1 km/h (2 Bft) SW 225 4,2 C 7,2 C
02.11.2012 10:56 8,8 C 72 % 999,0 hPa 0,0 l/m 19,4 km/h (3 Bft) W-SW 247 4,0 C 5,9 C
02.11.2012 11:01 8,9 C 73 % 999,2 hPa 0,0 l/m 12,2 km/h (2 Bft) SW 225 4,3 C 7,0 C
02.11.2012 11:06 9,0 C 72 % 999,1 hPa 0,0 l/m 15,8 km/h (3 Bft) W-SW 247 4,2 C 6,6 C
02.11.2012 11:11 9,1 C 72 % 999,2 hPa 0,0 l/m 7,2 km/h (2 Bft) W-SW 247 4,3 C 8,1 C
02.11.2012 11:16 9,2 C 71 % 999,3 hPa 0,0 l/m 15,1 km/h (3 Bft) W-SW 247 4,2 C 6,9 C
02.11.2012 11:21 9,2 C 70 % 999,3 hPa 0,0 l/m 10,8 km/h (2 Bft) SW 225 4,0 C 7,5 C
02.11.2012 11:26 9,3 C 70 % 999,3 hPa 0,0 l/m 15,1 km/h (3 Bft) W-SW 247 4,1 C 7,0 C
02.11.2012 11:31 9,4 C 70 % 999,4 hPa 0,0 l/m 10,1 km/h (2 Bft) W-SW 247 4,2 C 7,9 C
02.11.2012 11:36 9,4 C 68 % 999,4 hPa 0,0 l/m 13,3 km/h (3 Bft) W-SW 247 3,8 C 7,4 C
02.11.2012 11:41 9,5 C 68 % 999,6 hPa 0,0 l/m 8,3 km/h (2 Bft) W-SW 247 3,9 C 8,4 C
02.11.2012 11:46 9,6 C 67 % 999,6 hPa 0,0 l/m 15,5 km/h (3 Bft) SW 225 3,8 C 7,4 C
02.11.2012 11:51 9,8 C 66 % 999,5 hPa 0,0 l/m 17,3 km/h (3 Bft) S-SW 202 3,8 C 7,4 C
02.11.2012 11:56 9,8 C 66 % 999,7 hPa 0,0 l/m 10,8 km/h (2 Bft) S-SW 202 3,8 C 8,3 C
02.11.2012 12:01 9,9 C 66 % 999,7 hPa 0,0 l/m 10,4 km/h (2 Bft) S 180 3,9 C 8,4 C
02.11.2012 12:06 9,9 C 65 % 999,6 hPa 0,0 l/m 29,5 km/h (5 Bft) W-SW 247 3,6 C 6,5 C
02.11.2012 12:11 9,8 C 64 % 999,6 hPa 0,0 l/m 19,1 km/h (3 Bft) S-SW 202 3,3 C 7,2 C
02.11.2012 12:16 9,8 C 66 % 999,7 hPa 0,0 l/m 12,2 km/h (2 Bft) W-SW 247 3,8 C 8,0 C
02.11.2012 12:21 9,8 C 66 % 999,7 hPa 0,0 l/m 7,9 km/h (2 Bft) SW 225 3,8 C 8,8 C
02.11.2012 12:26 9,8 C 66 % 999,8 hPa 0,0 l/m 9,4 km/h (2 Bft) W-SW 247 3,8 C 8,5 C
02.11.2012 12:31 9,8 C 65 % 999,7 hPa 0,0 l/m 14,4 km/h (3 Bft) SW 225 3,5 C 7,7 C
02.11.2012 12:36 9,8 C 65 % 999,8 hPa 0,0 l/m 13,7 km/h (3 Bft) W 270 3,5 C 7,8 C
02.11.2012 12:41 9,8 C 64 % 999,8 hPa 0,0 l/m 11,9 km/h (2 Bft) S-SW 202 3,3 C 8,1 C
02.11.2012 12:46 9,6 C 64 % 999,8 hPa 0,0 l/m 14,4 km/h (3 Bft) S-SW 202 3,1 C 7,5 C
02.11.2012 12:51 9,5 C 64 % 999,9 hPa 0,0 l/m 11,9 km/h (2 Bft) SW 225 3,0 C 7,7 C
02.11.2012 12:56 9,6 C 65 % 999,8 hPa 0,0 l/m 14,8 km/h (3 Bft) S-SW 202 3,4 C 7,4 C
02.11.2012 13:01 9,6 C 64 % 1000,0 hPa 0,0 l/m 21,2 km/h (4 Bft) W-SW 247 3,1 C 6,8 C
02.11.2012 13:06 9,6 C 65 % 999,9 hPa 0,0 l/m 10,4 km/h (2 Bft) W-SW 247 3,4 C 8,1 C
02.11.2012 13:11 9,5 C 65 % 1000,0 hPa 0,0 l/m 16,9 km/h (3 Bft) SW 225 3,3 C 7,1 C
02.11.2012 13:16 9,6 C 65 % 1000,0 hPa 0,0 l/m 10,8 km/h (2 Bft) S 180 3,4 C 8,0 C
02.11.2012 13:21 9,6 C 65 % 1000,0 hPa 0,0 l/m 13,0 km/h (3 Bft) W-SW 247 3,4 C 7,7 C
02.11.2012 13:26 9,6 C 65 % 1000,0 hPa 0,0 l/m 12,6 km/h (3 Bft) SW 225 3,4 C 7,7 C
02.11.2012 13:31 9,6 C 65 % 1000,1 hPa 0,0 l/m 5,8 km/h (2 Bft) SW 225 3,4 C 9,1 C
02.11.2012 13:36 9,6 C 66 % 1000,3 hPa 0,0 l/m 9,4 km/h (2 Bft) S-SW 202 3,6 C 8,3 C
02.11.2012 13:41 9,5 C 66 % 1000,1 hPa 0,0 l/m 11,9 km/h (2 Bft) SW 225 3,5 C 7,7 C
02.11.2012 13:46 9,5 C 66 % 1000,1 hPa 0,0 l/m 12,2 km/h (2 Bft) SW 225 3,5 C 7,7 C
02.11.2012 13:51 9,5 C 67 % 1000,1 hPa 0,0 l/m 6,1 km/h (2 Bft) S 180 3,7 C 8,9 C
02.11.2012 13:56 9,5 C 67 % 1000,3 hPa 0,0 l/m 8,6 km/h (2 Bft) S-SO 157 3,7 C 8,3 C
02.11.2012 14:01 9,5 C 68 % 1000,1 hPa 0,0 l/m 6,1 km/h (2 Bft) S 180 3,9 C 8,9 C
02.11.2012 14:06 9,5 C 68 % 1000,4 hPa 0,0 l/m 5,0 km/h (1 Bft) S 180 3,9 C 9,2 C
02.11.2012 14:11 9,6 C 68 % 1000,4 hPa 0,0 l/m 7,6 km/h (2 Bft) W-SW 247 4,0 C 8,6 C
02.11.2012 14:16 9,6 C 67 % 1000,4 hPa 0,0 l/m 10,8 km/h (2 Bft) W-SW 247 3,8 C 8,0 C
02.11.2012 14:21 9,5 C 67 % 1000,4 hPa 0,0 l/m 7,2 km/h (2 Bft) W-SW 247 3,7 C 8,6 C
02.11.2012 14:26 9,5 C 67 % 1000,4 hPa 0,0 l/m 5,8 km/h (2 Bft) S-SW 202 3,7 C 9,0 C
02.11.2012 14:31 9,5 C 67 % 1000,3 hPa 0,0 l/m 5,0 km/h (1 Bft) S-SW 202 3,7 C 9,2 C
02.11.2012 14:36 9,5 C 67 % 1000,3 hPa 0,0 l/m 6,1 km/h (2 Bft) W 270 3,7 C 8,9 C
02.11.2012 14:41 9,5 C 67 % 1000,2 hPa 0,0 l/m 15,5 km/h (3 Bft) S-SW 202 3,7 C 7,2 C
02.11.2012 14:46 9,5 C 67 % 1000,5 hPa 0,0 l/m 6,1 km/h (2 Bft) SW 225 3,7 C 8,9 C
02.11.2012 14:51 9,5 C 67 % 1000,6 hPa 0,0 l/m 14,0 km/h (3 Bft) S-SO 157 3,7 C 7,4 C
02.11.2012 14:56 9,5 C 67 % 1000,6 hPa 0,0 l/m 9,4 km/h (2 Bft) S-SW 202 3,7 C 8,1 C
02.11.2012 15:01 9,5 C 67 % 1000,5 hPa 0,0 l/m 4,0 km/h (1 Bft) S-SO 157 3,7 C 9,5 C
02.11.2012 15:06 9,4 C 68 % 1000,5 hPa 0,0 l/m 18,7 km/h (3 Bft) S-SW 202 3,8 C 6,8 C
02.11.2012 15:11 9,3 C 67 % 1000,5 hPa 0,0 l/m 15,1 km/h (3 Bft) W-SW 247 3,5 C 7,0 C
02.11.2012 15:16 9,3 C 67 % 1000,5 hPa 0,0 l/m 13,7 km/h (3 Bft) SW 225 3,5 C 7,2 C
02.11.2012 15:21 9,2 C 67 % 1000,4 hPa 0,0 l/m 7,6 km/h (2 Bft) S-SW 202 3,4 C 8,2 C
02.11.2012 15:26 9,2 C 67 % 1000,4 hPa 0,0 l/m 3,2 km/h (1 Bft) S-SW 202 3,4 C 9,2 C
02.11.2012 15:31 9,1 C 67 % 1000,5 hPa 0,0 l/m 6,1 km/h (2 Bft) SW 225 3,3 C 8,4 C
02.11.2012 15:36 9,1 C 67 % 1000,5 hPa 0,0 l/m 6,1 km/h (2 Bft) S 180 3,3 C 8,4 C
02.11.2012 15:41 9,0 C 68 % 1000,6 hPa 0,0 l/m 6,1 km/h (2 Bft) S-SO 157 3,4 C 8,3 C
02.11.2012 15:46 8,9 C 68 % 1000,5 hPa 0,0 l/m 6,8 km/h (2 Bft) S-SW 202 3,3 C 8,0 C
02.11.2012 15:51 8,9 C 68 % 1000,6 hPa 0,0 l/m 9,7 km/h (2 Bft) S-SO 157 3,3 C 7,4 C
02.11.2012 15:56 8,9 C 68 % 1000,8 hPa 0,0 l/m 5,4 km/h (1 Bft) S-SW 202 3,3 C 8,4 C
02.11.2012 16:01 8,9 C 68 % 1000,6 hPa 0,0 l/m 16,9 km/h (3 Bft) W-SW 247 3,3 C 6,3 C
02.11.2012 16:06 8,8 C 69 % 1000,5 hPa 0,0 l/m 13,7 km/h (3 Bft) S 180 3,4 C 6,6 C
02.11.2012 16:11 8,8 C 69 % 1000,7 hPa 0,0 l/m 16,6 km/h (3 Bft) S 180 3,4 C 6,2 C
02.11.2012 16:16 8,7 C 69 % 1000,7 hPa 0,0 l/m 6,5 km/h (2 Bft) S 180 3,3 C 7,8 C
02.11.2012 16:21 8,6 C 69 % 1000,8 hPa 0,0 l/m 4,3 km/h (1 Bft) S-SO 157 3,2 C 8,6 C
02.11.2012 16:26 8,5 C 69 % 1000,6 hPa 0,0 l/m 6,1 km/h (2 Bft) SO 135 3,1 C 7,7 C
02.11.2012 16:31 8,5 C 70 % 1000,8 hPa 0,0 l/m 7,6 km/h (2 Bft) SW 225 3,3 C 7,3 C
02.11.2012 16:36 8,4 C 70 % 1000,8 hPa 0,0 l/m 4,0 km/h (1 Bft) SO 135 3,3 C 8,4 C
02.11.2012 16:41 8,3 C 71 % 1000,7 hPa 0,0 l/m 4,7 km/h (1 Bft) S-SO 157 3,4 C 7,9 C
02.11.2012 16:46 8,2 C 71 % 1000,7 hPa 0,0 l/m 6,1 km/h (2 Bft) S-SW 202 3,3 C 7,4 C
02.11.2012 16:51 8,2 C 71 % 1000,7 hPa 0,0 l/m 7,2 km/h (2 Bft) SO 135 3,3 C 7,1 C
02.11.2012 16:56 8,1 C 72 % 1000,7 hPa 0,0 l/m 4,0 km/h (1 Bft) S-SO 157 3,4 C 8,1 C
02.11.2012 17:01 8,1 C 72 % 1000,9 hPa 0,0 l/m 7,6 km/h (2 Bft) SW 225 3,4 C 6,9 C
02.11.2012 17:06 8,0 C 72 % 1000,6 hPa 0,0 l/m 14,8 km/h (3 Bft) S-SW 202 3,3 C 5,5 C
02.11.2012 17:11 7,9 C 72 % 1000,8 hPa 0,0 l/m 5,8 km/h (2 Bft) S-SW 202 3,2 C 7,1 C
02.11.2012 17:16 7,9 C 72 % 1000,7 hPa 0,0 l/m 3,6 km/h (1 Bft) S 180 3,2 C 7,9 C
02.11.2012 17:21 7,9 C 72 % 1000,9 hPa 0,0 l/m 3,6 km/h (1 Bft) S-SO 157 3,2 C 7,9 C
02.11.2012 17:26 7,9 C 72 % 1000,8 hPa 0,0 l/m 10,1 km/h (2 Bft) S-SW 202 3,2 C 6,1 C
02.11.2012 17:31 7,9 C 72 % 1000,8 hPa 0,0 l/m 6,1 km/h (2 Bft) SO 135 3,2 C 7,0 C
02.11.2012 17:36 7,9 C 73 % 1000,8 hPa 0,0 l/m 2,2 km/h (1 Bft) S 180 3,4 C 7,9 C
02.11.2012 17:41 7,8 C 73 % 1000,6 hPa 0,0 l/m 2,2 km/h (1 Bft) S-SO 157 3,3 C 7,8 C
02.11.2012 17:46 7,8 C 73 % 1000,6 hPa 0,0 l/m 6,1 km/h (2 Bft) S-SO 157 3,3 C 6,9 C
02.11.2012 17:51 7,8 C 73 % 1000,5 hPa 0,0 l/m 5,4 km/h (1 Bft) S 180 3,3 C 7,1 C
02.11.2012 17:56 7,6 C 73 % 1000,4 hPa 0,0 l/m 8,3 km/h (2 Bft) S 180 3,1 C 6,1 C
02.11.2012 18:01 7,6 C 72 % 1000,4 hPa 0,0 l/m 4,0 km/h (1 Bft) S-SW 202 2,9 C 7,6 C
02.11.2012 18:06 7,4 C 72 % 1000,4 hPa 0,0 l/m 5,4 km/h (1 Bft) SW 225 2,7 C 6,7 C
02.11.2012 18:11 7,3 C 72 % 1000,4 hPa 0,0 l/m 4,7 km/h (1 Bft) S-SW 202 2,6 C 6,8 C
02.11.2012 18:16 7,2 C 72 % 1000,3 hPa 0,0 l/m 11,5 km/h (2 Bft) S-SW 202 2,5 C 5,0 C
02.11.2012 18:21 7,2 C 73 % 1000,3 hPa 0,0 l/m 4,0 km/h (1 Bft) S-SW 202 2,7 C 7,2 C
02.11.2012 18:26 7,0 C 73 % 1000,5 hPa 0,0 l/m 4,0 km/h (1 Bft) S-SW 202 2,5 C 7,0 C
02.11.2012 18:31 6,9 C 73 % 1000,4 hPa 0,0 l/m 6,8 km/h (2 Bft) S-SW 202 2,4 C 5,7 C
02.11.2012 18:36 6,8 C 73 % 1000,4 hPa 0,0 l/m 5,0 km/h (1 Bft) SO 135 2,3 C 6,1 C
02.11.2012 18:41 6,6 C 73 % 1000,2 hPa 0,0 l/m 3,6 km/h (1 Bft) O-SO 112 2,1 C 6,6 C
02.11.2012 18:46 6,5 C 74 % 1000,3 hPa 0,0 l/m 7,2 km/h (2 Bft) S 180 2,2 C 5,1 C
02.11.2012 18:51 6,4 C 74 % 1000,3 hPa 0,0 l/m 6,1 km/h (2 Bft) S-SO 157 2,1 C 5,3 C
02.11.2012 18:56 6,4 C 74 % 1000,3 hPa 0,0 l/m 0,0 km/h (0 Bft) S-SO 157 2,1 C 6,4 C
02.11.2012 19:01 6,3 C 74 % 1000,1 hPa 0,0 l/m 5,0 km/h (1 Bft) SO 135 2,0 C 5,6 C
02.11.2012 19:06 6,3 C 74 % 1000,1 hPa 0,0 l/m 8,3 km/h (2 Bft) S-SO 157 2,0 C 4,6 C
02.11.2012 19:11 6,2 C 74 % 1000,1 hPa 0,0 l/m 2,2 km/h (1 Bft) S-SO 157 1,9 C 6,2 C
02.11.2012 19:16 6,2 C 74 % 1000,2 hPa 0,0 l/m 7,2 km/h (2 Bft) S-SO 157 1,9 C 4,8 C
02.11.2012 19:21 6,1 C 74 % 1000,1 hPa 0,0 l/m 5,4 km/h (1 Bft) S-SO 157 1,8 C 5,2 C
02.11.2012 19:26 6,1 C 74 % 1000,0 hPa 0,0 l/m 4,7 km/h (1 Bft) S-SW 202 1,8 C 5,4 C
02.11.2012 19:31 5,9 C 75 % 1000,1 hPa 0,0 l/m 9,0 km/h (2 Bft) S-SO 157 1,8 C 4,0 C
02.11.2012 19:36 5,9 C 75 % 1000,1 hPa 0,0 l/m 4,3 km/h (1 Bft) S-SO 157 1,8 C 5,9 C
02.11.2012 19:41 5,9 C 75 % 1000,1 hPa 0,0 l/m 5,4 km/h (1 Bft) SO 135 1,8 C 5,0 C
02.11.2012 19:46 5,8 C 75 % 1000,0 hPa 0,0 l/m 4,7 km/h (1 Bft) SO 135 1,7 C 5,1 C
02.11.2012 19:51 5,8 C 75 % 1000,1 hPa 0,0 l/m 6,8 km/h (2 Bft) SO 135 1,7 C 4,4 C
02.11.2012 19:56 5,7 C 75 % 1000,1 hPa 0,0 l/m 7,9 km/h (2 Bft) S-SO 157 1,6 C 4,0 C
02.11.2012 20:01 5,6 C 75 % 1000,0 hPa 0,0 l/m 1,8 km/h (1 Bft) S 180 1,5 C 5,6 C
02.11.2012 20:06 5,5 C 76 % 1000,1 hPa 0,0 l/m 3,6 km/h (1 Bft) S-SW 202 1,6 C 5,5 C
02.11.2012 20:11 5,5 C 76 % 999,9 hPa 0,0 l/m 5,8 km/h (2 Bft) O-SO 112 1,6 C 4,4 C
02.11.2012 20:16 5,4 C 76 % 1000,0 hPa 0,0 l/m 3,2 km/h (1 Bft) S-SO 157 1,5 C 5,4 C
02.11.2012 20:21 5,3 C 76 % 1000,0 hPa 0,0 l/m 2,2 km/h (1 Bft) S-SO 157 1,4 C 5,3 C
02.11.2012 20:26 5,3 C 77 % 999,9 hPa 0,0 l/m 4,0 km/h (1 Bft) S-SO 157 1,6 C 5,3 C
02.11.2012 20:31 5,2 C 77 % 999,8 hPa 0,0 l/m 4,3 km/h (1 Bft) O-SO 112 1,5 C 5,2 C
02.11.2012 20:36 5,2 C 77 % 999,7 hPa 0,0 l/m 4,3 km/h (1 Bft) SO 135 1,5 C 5,2 C
02.11.2012 20:41 5,2 C 77 % 999,8 hPa 0,0 l/m 4,7 km/h (1 Bft) S-SO 157 1,5 C 4,4 C
02.11.2012 20:46 5,1 C 77 % 999,8 hPa 0,0 l/m 3,2 km/h (1 Bft) S-SO 157 1,4 C 5,1 C
02.11.2012 20:51 5,1 C 77 % 999,7 hPa 0,0 l/m 2,9 km/h (1 Bft) S-SO 157 1,4 C 5,1 C
02.11.2012 20:56 5,1 C 77 % 999,7 hPa 0,0 l/m 6,1 km/h (2 Bft) S-SO 157 1,4 C 3,8 C
02.11.2012 21:01 5,2 C 77 % 999,7 hPa 0,0 l/m 5,4 km/h (1 Bft) SO 135 1,5 C 4,2 C
02.11.2012 21:06 5,2 C 77 % 999,8 hPa 0,0 l/m 8,6 km/h (2 Bft) S-SO 157 1,5 C 3,2 C
02.11.2012 21:11 5,3 C 77 % 999,8 hPa 0,0 l/m 3,6 km/h (1 Bft) S-SO 157 1,6 C 5,3 C
02.11.2012 21:16 5,3 C 77 % 999,8 hPa 0,0 l/m 2,9 km/h (1 Bft) SO 135 1,6 C 5,3 C
02.11.2012 21:21 5,3 C 77 % 999,8 hPa 0,0 l/m 3,2 km/h (1 Bft) SO 135 1,6 C 5,3 C
02.11.2012 21:26 5,4 C 77 % 999,7 hPa 0,0 l/m 3,2 km/h (1 Bft) S-SO 157 1,7 C 5,4 C
02.11.2012 21:31 5,6 C 77 % 999,6 hPa 0,0 l/m 8,3 km/h (2 Bft) S 180 1,9 C 3,8 C
02.11.2012 21:36 5,6 C 77 % 999,6 hPa 0,0 l/m 4,7 km/h (1 Bft) S 180 1,9 C 4,9 C
02.11.2012 21:41 5,8 C 77 % 999,7 hPa 0,0 l/m 0,0 km/h (0 Bft) S 180 2,1 C 5,8 C
02.11.2012 21:46 5,9 C 77 % 999,7 hPa 0,0 l/m 8,6 km/h (2 Bft) S-SW 202 2,2 C 4,0 C
02.11.2012 21:51 5,9 C 76 % 999,5 hPa 0,0 l/m 15,5 km/h (3 Bft) S-SO 157 2,0 C 2,8 C
02.11.2012 21:56 6,1 C 76 % 999,4 hPa 0,0 l/m 11,5 km/h (2 Bft) W-SW 247 2,2 C 3,7 C
02.11.2012 22:01 6,1 C 76 % 999,5 hPa 0,0 l/m 7,6 km/h (2 Bft) S-SO 157 2,2 C 4,5 C
02.11.2012 22:06 6,2 C 76 % 999,5 hPa 0,0 l/m 18,7 km/h (3 Bft) S-SW 202 2,3 C 2,7 C
02.11.2012 22:11 6,3 C 76 % 999,6 hPa 0,0 l/m 5,0 km/h (1 Bft) S 180 2,4 C 5,6 C
02.11.2012 22:16 6,3 C 76 % 999,6 hPa 0,0 l/m 10,4 km/h (2 Bft) S 180 2,4 C 4,1 C
02.11.2012 22:21 6,3 C 77 % 999,5 hPa 0,0 l/m 4,3 km/h (1 Bft) S-SO 157 2,6 C 6,3 C
02.11.2012 22:26 6,2 C 77 % 999,4 hPa 0,0 l/m 3,6 km/h (1 Bft) S-SW 202 2,5 C 6,2 C
02.11.2012 22:31 6,2 C 78 % 999,5 hPa 0,0 l/m 4,0 km/h (1 Bft) S-SO 157 2,7 C 6,2 C
02.11.2012 22:36 6,1 C 78 % 999,5 hPa 0,0 l/m 4,3 km/h (1 Bft) S-SW 202 2,6 C 6,1 C
02.11.2012 22:41 6,1 C 80 % 999,4 hPa 0,0 l/m 12,2 km/h (2 Bft) S-SO 157 2,9 C 3,6 C
02.11.2012 22:46 5,9 C 80 % 999,5 hPa 0,0 l/m 7,6 km/h (2 Bft) S-SW 202 2,7 C 4,3 C
02.11.2012 22:51 5,9 C 81 % 999,3 hPa 0,0 l/m 9,7 km/h (2 Bft) SW 225 2,9 C 3,8 C
02.11.2012 22:56 5,9 C 81 % 999,4 hPa 0,0 l/m 9,0 km/h (2 Bft) S-SO 157 2,9 C 4,0 C
02.11.2012 23:01 5,9 C 82 % 999,4 hPa 0,5 l/m 7,2 km/h (2 Bft) S-SO 157 3,1 C 4,4 C
02.11.2012 23:06 5,9 C 83 % 999,4 hPa 0,0 l/m 4,0 km/h (1 Bft) S-SO 157 3,2 C 5,9 C
02.11.2012 23:11 5,9 C 83 % 999,4 hPa 0,0 l/m 5,4 km/h (1 Bft) S-SO 157 3,2 C 5,0 C
02.11.2012 23:16 5,9 C 84 % 999,4 hPa 0,0 l/m 2,9 km/h (1 Bft) S-SO 157 3,4 C 5,9 C
02.11.2012 23:21 5,9 C 84 % 999,2 hPa 0,0 l/m 4,7 km/h (1 Bft) S-SO 157 3,4 C 5,2 C
02.11.2012 23:26 5,9 C 84 % 999,3 hPa 0,0 l/m 8,6 km/h (2 Bft) SW 225 3,4 C 4,0 C
02.11.2012 23:31 5,9 C 84 % 999,3 hPa 0,0 l/m 2,9 km/h (1 Bft) S-SO 157 3,4 C 5,9 C
02.11.2012 23:36 5,9 C 85 % 999,3 hPa 0,0 l/m 7,2 km/h (2 Bft) S 180 3,6 C 4,4 C
02.11.2012 23:41 5,9 C 85 % 999,4 hPa 0,5 l/m 9,4 km/h (2 Bft) S-SW 202 3,6 C 3,9 C
02.11.2012 23:46 5,9 C 86 % 999,4 hPa 0,0 l/m 6,8 km/h (2 Bft) S-SW 202 3,7 C 4,5 C
02.11.2012 23:51 5,9 C 86 % 999,0 hPa 0,0 l/m 10,1 km/h (2 Bft) S-SO 157 3,7 C 3,7 C
02.11.2012 23:56 5,9 C 87 % 999,0 hPa 0,0 l/m 10,8 km/h (2 Bft) S 180 3,9 C 3,6 C
_ Min-Zeit 20:46 12:11 00:06 - 01:51 - - 20:46 07:16
Minimum _ 5,1 C 64 % 990,7 hPa - 0,0 km/h (0 Bft) - - 1,4 C 2,0 C
_ Max-Zeit 12:01 00:01 17:01 23:01 12:06 - - 00:11 15:01
Maximum _ 9,9 C 89 % 1000,9 hPa 0,5 l/m 29,5 km/h
W-SW (5 Bft)
- - 5,4 C 9,5 C
Durchschnitt _ 7,3 C 77 % 997,6 hPa #1,0 l/m 9,2 km/h (2 Bft) S-SW - 3,5 C 5,8 C
(c) by David Heller